Time;durP1;ratioP1;P1;durP2;ratioP2;P2;SDS_P1;SDS_P2;PMS_P1;PMS_P2;Temp;Humidity;BMP_temperature;BMP_pressure;BME280_temperature;BME280_humidity;BME280_pressure;Samples;Min_cycle;Max_cycle;Signal;HPM_P1;HPM_P2
2022/04/28 00:00:05;;;;;;;12.23;8.80;;;;;;;5.89;100.00;97015.47;5013358;28;20045;-80
2022/04/28 00:02:33;;;;;;;13.50;10.00;;;;;;;5.87;100.00;97012.16;5023313;28;20109;-80
2022/04/28 00:05:01;;;;;;;12.93;9.63;;;;;;;5.82;100.00;97004.66;5024486;28;20042;-80
2022/04/28 00:07:27;;;;;;;12.60;9.13;;;;;;;5.78;100.00;97012.81;5025573;28;20026;-80
2022/04/28 00:09:53;;;;;;;16.57;9.40;;;;;;;5.81;100.00;97015.22;4998400;28;20109;-81
2022/04/28 00:12:18;;;;;;;12.67;9.27;;;;;;;5.77;100.00;97011.13;5009272;28;20030;-81
2022/04/28 00:14:44;;;;;;;12.23;9.20;;;;;;;5.69;100.00;97022.13;5010200;28;20100;-81
2022/04/28 00:17:10;;;;;;;13.73;10.20;;;;;;;5.73;100.00;97020.97;5010350;28;20096;-81
2022/04/28 00:19:36;;;;;;;13.97;9.30;;;;;;;5.67;100.00;97016.19;5008392;28;20029;-82
2022/04/28 00:22:02;;;;;;;13.70;9.63;;;;;;;5.64;100.00;97013.81;5011337;28;20038;-81
2022/04/28 00:24:28;;;;;;;11.60;9.33;;;;;;;5.61;100.00;97019.25;5012727;28;20038;-81
2022/04/28 00:26:53;;;;;;;12.63;9.80;;;;;;;5.59;100.00;97014.13;5011468;28;20107;-81
2022/04/28 00:29:20;;;;;;;15.43;9.87;;;;;;;5.58;100.00;97019.47;4994827;28;20025;-81
2022/04/28 00:31:47;;;;;;;14.97;10.50;;;;;;;5.58;100.00;97022.91;5011124;28;20026;-81
2022/04/28 00:34:13;;;;;;;13.33;10.13;;;;;;;5.55;100.00;97017.06;5010374;28;20049;-81
2022/04/28 00:36:38;;;;;;;13.27;10.30;;;;;;;5.50;100.00;97027.84;5011009;28;20554;-81
2022/04/28 00:39:04;;;;;;;13.67;9.67;;;;;;;5.44;100.00;97023.88;5008290;28;20045;-81
2022/04/28 00:41:30;;;;;;;12.83;10.70;;;;;;;5.46;100.00;97020.31;5010190;28;20065;-81
2022/04/28 00:43:55;;;;;;;14.57;10.30;;;;;;;5.41;100.00;97021.47;5010811;28;20494;-81
2022/04/28 00:46:22;;;;;;;13.50;9.70;;;;;;;5.38;100.00;97020.88;5008598;28;20069;-80
2022/04/28 00:51:37;;;;;;;14.03;9.90;;;;;;;5.34;100.00;97027.25;5008949;28;20034;-80
2022/04/28 00:54:04;;;;;;;13.40;10.10;;;;;;;5.32;100.00;97022.13;4990726;28;20038;-80
2022/04/28 00:56:31;;;;;;;12.83;9.93;;;;;;;5.32;100.00;97023.91;5011711;28;20033;-80
2022/04/28 00:59:02;;;;;;;15.43;10.50;;;;;;;5.26;100.00;97019.09;5009147;28;20054;-80
2022/04/28 01:01:29;;;;;;;12.90;9.83;;;;;;;5.19;100.00;97021.31;4989282;28;20158;-80
2022/04/28 01:03:55;;;;;;;16.57;10.70;;;;;;;5.18;100.00;97024.88;5009611;28;20029;-80
2022/04/28 01:06:22;;;;;;;13.13;10.40;;;;;;;5.13;100.00;97024.34;5010322;28;20026;-79
2022/04/28 01:08:48;;;;;;;13.93;10.27;;;;;;;5.11;100.00;97019.25;4996779;28;20373;-80
2022/04/28 01:11:16;;;;;;;14.43;10.93;;;;;;;5.10;100.00;97020.19;4998535;28;20109;-80
2022/04/28 01:13:54;;;;;;;13.00;9.87;;;;;;;5.11;100.00;97021.00;5016683;28;20033;-78
2022/04/28 01:16:46;;;;;;;13.93;10.47;;;;;;;5.03;100.00;97023.31;5036806;28;20038;-79
2022/04/28 01:19:12;;;;;;;14.53;10.83;;;;;;;5.04;100.00;97025.81;5016851;28;20033;-80
2022/04/28 01:21:38;;;;;;;15.17;11.07;;;;;;;4.96;100.00;97028.97;5013553;28;21735;-80
2022/04/28 01:24:14;;;;;;;16.83;11.03;;;;;;;4.95;100.00;97024.66;5009817;28;20029;-80
2022/04/28 01:26:42;;;;;;;14.50;11.33;;;;;;;4.88;100.00;97020.81;5029182;28;20521;-79
2022/04/28 01:29:08;;;;;;;15.40;11.23;;;;;;;4.90;100.00;97029.38;5014111;28;20022;-80
2022/04/28 01:31:34;;;;;;;13.47;10.97;;;;;;;4.90;100.00;97023.34;4997721;28;20076;-80
2022/04/28 01:34:02;;;;;;;14.37;10.67;;;;;;;4.83;100.00;97029.88;4990554;28;20511;-79
2022/04/28 01:36:31;;;;;;;15.90;12.23;;;;;;;4.78;100.00;97019.78;5010376;28;20384;-79
2022/04/28 01:38:57;;;;;;;15.87;12.00;;;;;;;4.80;100.00;97032.72;5013540;28;20095;-78
2022/04/28 01:41:23;;;;;;;17.47;12.70;;;;;;;4.76;100.00;97026.84;5012239;28;20121;-79
2022/04/28 01:43:51;;;;;;;15.53;11.43;;;;;;;4.75;100.00;97030.41;4995845;28;21608;-80
2022/04/28 01:46:17;;;;;;;14.50;11.53;;;;;;;4.72;100.00;97025.41;5014874;28;20026;-80
2022/04/28 01:48:55;;;;;;;15.30;11.23;;;;;;;4.66;100.00;97031.88;5012643;28;20042;-80
2022/04/28 01:54:59;;;;;;;13.83;10.87;;;;;;;4.64;100.00;97038.13;4973346;28;20418;-79
2022/04/28 01:57:43;;;;;;;11.52;8.93;;;;;;;4.60;100.00;97031.44;4977127;28;20041;-78
2022/04/28 02:00:29;;;;;;;15.97;12.43;;;;;;;4.58;100.00;97028.09;4981018;28;20048;-78
2022/04/28 02:03:03;;;;;;;14.73;11.27;;;;;;;4.56;100.00;97030.81;4951841;28;20045;-78
2022/04/28 02:05:29;;;;;;;15.30;12.03;;;;;;;4.57;100.00;97023.84;4977866;28;20091;-80
2022/04/28 02:07:55;;;;;;;15.53;12.07;;;;;;;4.55;100.00;97029.13;4980884;28;20407;-80
2022/04/28 02:10:20;;;;;;;17.53;11.27;;;;;;;4.45;100.00;97028.91;4963513;28;20030;-79
2022/04/28 02:12:46;;;;;;;16.07;11.90;;;;;;;4.45;100.00;97026.31;4985735;28;20110;-80
2022/04/28 02:15:36;;;;;;;14.17;10.43;;;;;;;4.45;100.00;97028.91;4975266;28;20120;-80
2022/04/28 02:18:20;;;;;;;14.13;11.17;;;;;;;4.40;100.00;97025.78;4981067;28;20088;-80
2022/04/28 02:20:46;;;;;;;15.50;11.83;;;;;;;4.39;100.00;97029.34;4996890;28;20030;-80
2022/04/28 02:23:12;;;;;;;17.00;11.57;;;;;;;4.31;100.00;97036.81;4984986;28;20061;-80
2022/04/28 02:25:38;;;;;;;14.40;11.20;;;;;;;4.30;100.00;97035.16;5008012;28;20399;-80
2022/04/28 02:28:04;;;;;;;14.70;10.73;;;;;;;4.27;100.00;97035.34;5007652;28;20021;-79
2022/04/28 02:30:30;;;;;;;15.43;11.57;;;;;;;4.21;100.00;97035.75;5004619;28;20068;-80
2022/04/28 02:33:11;;;;;;;14.37;10.87;;;;;;;4.17;100.00;97040.31;5009403;28;20034;-80
2022/04/28 02:36:15;;;;;;;15.70;11.17;;;;;;;4.14;100.00;97035.31;4962114;28;20088;-80
2022/04/28 02:38:41;;;;;;;14.97;11.47;;;;;;;4.16;100.00;97033.44;5000955;28;20080;-80
2022/04/28 02:41:11;;;;;;;14.67;11.73;;;;;;;4.14;100.00;97034.47;5011801;28;20567;-80
2022/04/28 02:43:36;;;;;;;15.17;11.50;;;;;;;4.07;100.00;97038.41;4993340;28;20117;-79
2022/04/28 02:46:13;;;;;;;17.73;12.83;;;;;;;4.08;100.00;97037.47;5007281;28;20033;-80
2022/04/28 02:49:02;;;;;;;17.97;12.90;;;;;;;4.05;100.00;97032.47;5008297;28;20092;-80
2022/04/28 02:51:33;;;;;;;17.63;12.43;;;;;;;3.98;100.00;97034.63;5009194;28;20041;-79
2022/04/28 02:53:59;;;;;;;14.87;11.27;;;;;;;4.00;100.00;97033.59;5009331;28;20913;-78
2022/04/28 02:56:25;;;;;;;16.37;11.73;;;;;;;4.02;100.00;97033.50;4992197;28;20080;-79
2022/04/28 02:58:52;;;;;;;15.83;11.43;;;;;;;4.01;100.00;97040.47;5009225;28;20389;-79
2022/04/28 03:01:20;;;;;;;16.33;11.77;;;;;;;3.95;100.00;97040.84;5008023;28;20087;-80
2022/04/28 03:03:46;;;;;;;15.23;11.83;;;;;;;3.88;100.00;97047.38;5008658;28;20038;-80
2022/04/28 03:11:41;;;;;;;14.97;11.60;;;;;;;3.89;100.00;97041.28;5009257;28;20032;-78
2022/04/28 03:14:12;;;;;;;15.20;11.07;;;;;;;3.84;100.00;97045.09;5030288;28;20057;-78
2022/04/28 03:16:38;;;;;;;16.50;12.30;;;;;;;3.87;100.00;97048.34;5020064;28;20097;-80
2022/04/28 03:19:06;;;;;;;16.83;11.47;;;;;;;3.84;100.00;97050.28;5008769;28;20112;-80
2022/04/28 03:21:33;;;;;;;23.47;12.60;;;;;;;3.80;100.00;97052.25;5006152;28;20032;-79
2022/04/28 03:24:01;;;;;;;17.27;13.00;;;;;;;3.78;100.00;97054.94;5014863;28;20034;-78
2022/04/28 03:26:29;;;;;;;14.80;11.90;;;;;;;3.80;100.00;97052.25;5015071;28;20030;-80
2022/04/28 03:28:57;;;;;;;14.60;11.50;;;;;;;3.84;100.00;97060.69;5017502;28;20061;-80
2022/04/28 03:31:23;;;;;;;16.10;11.83;;;;;;;3.81;100.00;97055.69;5014413;28;20044;-80
2022/04/28 03:34:03;;;;;;;16.37;11.77;;;;;;;3.80;100.00;97057.47;5017909;28;20078;-79
2022/04/28 03:39:13;;;;;;;15.50;11.73;;;;;;;3.76;100.00;97058.59;5016934;28;20042;-80
2022/04/28 03:41:40;;;;;;;17.37;12.03;;;;;;;3.74;100.00;97055.25;5013973;28;20025;-80
2022/04/28 03:44:05;;;;;;;18.53;11.87;;;;;;;3.74;100.00;97060.44;5012417;28;20672;-80
2022/04/28 03:46:31;;;;;;;17.40;11.77;;;;;;;3.71;100.00;97060.63;5029611;28;20056;-80
2022/04/28 03:48:57;;;;;;;17.60;13.43;;;;;;;3.73;100.00;97069.19;5012986;28;20075;-80
2022/04/28 03:51:23;;;;;;;15.83;12.10;;;;;;;3.76;100.00;97062.03;5007529;28;20399;-79
2022/04/28 03:53:49;;;;;;;15.87;12.13;;;;;;;3.70;100.00;97061.56;5016640;28;20151;-79
2022/04/28 03:56:16;;;;;;;15.67;11.20;;;;;;;3.70;100.00;97070.22;5017694;28;20033;-80
2022/04/28 03:58:42;;;;;;;15.60;12.17;;;;;;;3.64;100.00;97064.56;5012425;28;20080;-80
2022/04/28 04:01:08;;;;;;;17.87;12.57;;;;;;;3.57;100.00;97071.06;5010960;28;20034;-80
2022/04/28 04:03:54;;;;;;;16.63;12.03;;;;;;;3.57;100.00;97065.88;5012210;28;20095;-79
2022/04/28 04:06:22;;;;;;;15.90;11.50;;;;;;;3.57;100.00;97065.88;5013353;28;20044;-79
2022/04/28 04:09:04;;;;;;;18.70;12.77;;;;;;;3.50;100.00;97074.06;5013376;28;20029;-79
2022/04/28 04:11:30;;;;;;;16.80;12.90;;;;;;;3.52;100.00;97080.00;5018591;28;20029;-79
2022/04/28 04:13:56;;;;;;;15.73;11.40;;;;;;;3.46;100.00;97069.97;5011504;28;20127;-79
2022/04/28 04:16:22;;;;;;;15.77;12.00;;;;;;;3.49;100.00;97080.19;5013301;28;20054;-79
2022/04/28 04:19:02;;;;;;;22.60;13.77;;;;;;;3.50;100.00;97075.81;5012898;28;20034;-77
2022/04/28 04:21:29;;;;;;;17.40;12.10;;;;;;;3.44;100.00;97077.03;5006631;28;20030;-77
2022/04/28 04:23:57;;;;;;;18.50;13.50;;;;;;;3.48;100.00;97078.50;5014154;28;20439;-78
2022/04/28 04:26:23;;;;;;;16.17;12.47;;;;;;;3.52;100.00;97080.00;5010843;28;20058;-81
2022/04/28 04:28:48;;;;;;;19.03;13.80;;;;;;;3.63;100.00;97078.50;5011844;28;20057;-81
2022/04/28 04:34:16;;;;;;;17.53;13.07;;;;;;;3.76;100.00;97084.59;5010031;28;20037;-80
2022/04/28 04:36:42;;;;;;;20.20;13.53;;;;;;;3.72;100.00;97085.72;4998738;28;20058;-81
2022/04/28 04:39:09;;;;;;;17.97;12.87;;;;;;;3.80;100.00;97087.84;5027321;28;20117;-81
2022/04/28 04:41:39;;;;;;;18.40;12.60;;;;;;;3.77;100.00;97088.88;5014835;28;20026;-80
2022/04/28 04:44:12;;;;;;;17.33;12.33;;;;;;;3.87;100.00;97089.97;5007892;28;20137;-80
2022/04/28 04:46:41;;;;;;;19.45;13.45;;;;;;;3.83;100.00;97095.47;4990548;28;20381;-80
2022/04/28 04:49:19;;;;;;;17.87;11.97;;;;;;;3.90;100.00;97089.78;5011053;28;20065;-81
2022/04/28 04:51:48;;;;;;;16.43;11.63;;;;;;;3.94;100.00;97101.66;5014598;28;20022;-81
2022/04/28 04:54:22;;;;;;;17.23;12.20;;;;;;;3.99;100.00;97104.81;5015154;28;20034;-81
2022/04/28 04:56:50;;;;;;;18.83;13.07;;;;;;;4.08;100.00;97107.75;5015336;28;20030;-80
2022/04/28 04:59:16;;;;;;;18.47;11.70;;;;;;;4.25;100.00;97100.53;5012127;28;20030;-81
2022/04/28 05:01:42;;;;;;;17.77;12.33;;;;;;;4.33;100.00;97105.25;5014175;28;20430;-80
2022/04/28 05:04:26;;;;;;;19.10;12.30;;;;;;;4.38;100.00;97100.56;5012398;28;20120;-79
2022/04/28 05:07:10;;;;;;;19.17;12.77;;;;;;;4.46;100.00;97106.13;5014983;28;20042;-78
2022/04/28 05:09:39;;;;;;;15.70;12.00;;;;;;;4.68;100.00;97110.75;4996699;28;20030;-82
2022/04/28 05:12:05;;;;;;;18.63;12.60;;;;;;;4.91;100.00;97111.84;5014836;28;20036;-82
2022/04/28 05:14:45;;;;;;;15.73;11.20;;;;;;;5.13;100.00;97108.63;5014826;28;20501;-82
2022/04/28 05:17:12;;;;;;;16.90;10.93;;;;;;;5.40;100.00;97116.34;5006856;28;20030;-81
2022/04/28 05:19:58;;;;;;;15.60;11.50;;;;;;;5.72;100.00;97115.03;5010842;28;20125;-79
2022/04/28 05:22:42;;;;;;;15.20;10.90;;;;;;;6.03;100.00;97113.72;5028385;28;20061;-79
2022/04/28 05:25:34;;;;;;;16.27;11.40;;;;;;;6.24;100.00;97121.81;5004151;28;20054;-80
2022/04/28 05:28:32;;;;;;;13.63;10.33;;;;;;;6.55;100.00;97118.63;4989956;28;20038;-79
2022/04/28 05:31:16;;;;;;;18.00;10.97;;;;;;;6.55;100.00;97123.84;5013230;28;20044;-78
2022/04/28 05:34:00;;;;;;;15.10;11.00;;;;;;;6.88;100.00;97119.69;5010292;28;20599;-79
2022/04/28 05:36:50;;;;;;;14.37;10.30;;;;;;;7.23;100.00;97124.88;5009793;28;20030;-80
2022/04/28 05:39:16;;;;;;;14.27;10.20;;;;;;;7.35;100.00;97124.91;5009401;28;20065;-80
2022/04/28 05:41:43;;;;;;;13.97;9.47;;;;;;;7.62;100.00;97120.16;5014281;28;20145;-79
2022/04/28 05:46:53;;;;;;;14.63;9.93;;;;;;;7.97;100.00;97127.84;5016881;28;20034;-80
2022/04/28 05:49:21;;;;;;;15.40;10.33;;;;;;;8.16;100.00;97118.56;5000281;28;20037;-79
2022/04/28 05:51:48;;;;;;;12.83;9.60;;;;;;;8.54;100.00;97122.53;5010836;28;20037;-80
2022/04/28 05:54:16;;;;;;;14.87;9.93;;;;;;;8.69;100.00;97124.75;5032849;28;20061;-78
2022/04/28 05:56:42;;;;;;;15.57;9.83;;;;;;;9.16;100.00;97125.22;5037733;28;20018;-78
2022/04/28 05:59:10;;;;;;;12.97;10.10;;;;;;;8.86;100.00;97135.63;5003054;28;20141;-81
2022/04/28 06:01:45;;;;;;;14.43;9.80;;;;;;;9.30;100.00;97131.09;5006500;28;20046;-80
2022/04/28 06:04:15;;;;;;;12.57;9.37;;;;;;;8.90;100.00;97137.03;5003836;28;20026;-80
2022/04/28 06:06:44;;;;;;;12.03;8.80;;;;;;;9.16;100.00;97132.25;5000443;28;20434;-80
2022/04/28 06:09:22;;;;;;;12.47;9.10;;;;;;;9.41;100.00;97136.25;5012666;28;20034;-80
2022/04/28 06:11:49;;;;;;;11.53;8.90;;;;;;;9.79;100.00;97137.41;4999640;28;20034;-80
2022/04/28 06:14:15;;;;;;;12.60;8.50;;;;;;;9.99;100.00;97139.13;5016034;28;20196;-81
2022/04/28 06:17:10;;;;;;;12.83;8.87;;;;;;;10.15;100.00;97139.47;5015891;28;20026;-79
2022/04/28 06:19:36;;;;;;;15.73;10.63;;;;;;;10.70;100.00;97133.78;4991915;28;20038;-81
2022/04/28 06:22:20;;;;;;;11.93;9.20;;;;;;;10.19;100.00;97136.56;5017843;28;20044;-80
2022/04/28 06:24:56;;;;;;;12.27;9.20;;;;;;;10.88;100.00;97144.44;5015506;28;20128;-80
2022/04/28 06:27:23;;;;;;;11.77;9.07;;;;;;;11.33;97.87;97144.69;5015427;28;20033;-80
2022/04/28 06:29:52;;;;;;;13.53;10.17;;;;;;;11.53;98.02;97148.09;5006639;28;20037;-81
2022/04/28 06:32:21;;;;;;;12.93;9.37;;;;;;;11.68;91.03;97147.66;5010535;28;20026;-80
2022/04/28 06:35:07;;;;;;;10.97;8.40;;;;;;;12.35;86.36;97136.00;5021541;28;20048;-81
2022/04/28 06:37:33;;;;;;;12.83;9.93;;;;;;;11.96;88.20;97149.38;4990140;28;20503;-81
2022/04/28 06:40:03;;;;;;;12.23;9.33;;;;;;;12.48;86.10;97143.56;5009570;28;20029;-81
2022/04/28 06:42:30;;;;;;;14.83;10.43;;;;;;;13.17;81.60;97149.97;4990995;28;20088;-81
2022/04/28 06:45:14;;;;;;;14.27;10.03;;;;;;;13.23;79.42;97146.72;5017462;28;20084;-80
2022/04/28 06:48:06;;;;;;;14.70;10.10;;;;;;;13.44;76.37;97151.69;5016698;28;20069;-81
2022/04/28 06:51:01;;;;;;;11.87;9.07;;;;;;;12.72;80.80;97153.53;5004217;28;20695;-80
2022/04/28 06:53:49;;;;;;;11.47;8.00;;;;;;;13.27;79.01;97153.38;5002389;28;20108;-80
2022/04/28 06:56:21;;;;;;;11.20;8.67;;;;;;;13.10;80.91;97156.84;4998611;28;20045;-80
2022/04/28 06:59:05;;;;;;;11.05;7.90;;;;;;;13.20;81.88;97158.41;5014895;28;20112;-80
2022/04/28 07:01:32;;;;;;;11.57;8.10;;;;;;;13.90;78.04;97150.47;5015270;28;20040;-80
2022/04/28 07:03:58;;;;;;;11.40;7.57;;;;;;;14.38;75.07;97154.34;5014095;28;20398;-80
2022/04/28 07:06:24;;;;;;;12.40;8.80;;;;;;;14.57;71.26;97152.41;4998205;28;20026;-81
2022/04/28 07:08:52;;;;;;;12.50;8.00;;;;;;;13.81;75.24;97161.97;5015396;28;20025;-80
2022/04/28 07:11:18;;;;;;;12.83;8.07;;;;;;;14.36;73.40;97163.41;5014747;28;20080;-81
2022/04/28 07:13:44;;;;;;;11.67;8.30;;;;;;;13.93;75.37;97169.66;4998148;28;20422;-79
2022/04/28 07:16:10;;;;;;;11.63;8.90;;;;;;;13.98;74.91;97162.06;5016874;28;20072;-81
2022/04/28 07:18:59;;;;;;;11.10;7.43;;;;;;;14.32;72.10;97154.97;4983919;28;20034;-80
2022/04/28 07:21:25;;;;;;;10.27;7.27;;;;;;;14.81;71.02;97159.59;5006599;28;20052;-79
2022/04/28 07:23:51;;;;;;;9.23;6.87;;;;;;;14.38;69.09;97158.78;5020936;28;20506;-81
2022/04/28 07:26:17;;;;;;;9.83;7.37;;;;;;;13.98;73.08;97172.66;5014394;28;20032;-81
2022/04/28 07:28:43;;;;;;;12.13;8.10;;;;;;;13.89;71.51;97169.97;5014071;28;20033;-81
2022/04/28 07:31:20;;;;;;;10.37;7.67;;;;;;;14.29;71.48;97167.69;5014100;28;20041;-80
2022/04/28 07:34:05;;;;;;;10.23;7.43;;;;;;;14.90;69.81;97174.50;5009726;28;20164;-80
2022/04/28 07:36:49;;;;;;;14.77;8.43;;;;;;;16.06;65.35;97168.97;5006853;28;20095;-81
2022/04/28 07:39:27;;;;;;;10.10;7.07;;;;;;;15.47;63.56;97171.06;5015398;28;20050;-80
2022/04/28 07:42:13;;;;;;;9.02;6.57;;;;;;;15.52;62.77;97174.84;5005156;28;20081;-81
2022/04/28 07:44:43;;;;;;;9.18;6.45;;;;;;;15.85;63.14;97174.00;4998588;28;20033;-81
2022/04/28 07:47:10;;;;;;;9.75;6.28;;;;;;;16.27;60.05;97177.19;5013758;28;20033;-81
2022/04/28 07:49:55;;;;;;;8.60;6.32;;;;;;;16.32;55.48;97173.19;5005863;28;20044;-81
2022/04/28 07:52:22;;;;;;;9.50;6.13;;;;;;;17.16;53.76;97166.25;5014260;28;20387;-81
2022/04/28 07:54:49;;;;;;;9.77;6.53;;;;;;;16.40;55.32;97173.19;5007668;28;20432;-80
2022/04/28 07:57:18;;;;;;;9.27;6.07;;;;;;;16.46;53.75;97175.13;5013293;28;20029;-80
2022/04/28 07:59:44;;;;;;;10.55;6.35;;;;;;;16.67;53.46;97175.34;4994335;28;20116;-81
2022/04/28 08:02:17;;;;;;;12.15;6.20;;;;;;;16.35;52.52;97171.03;5008839;28;20739;-81
2022/04/28 08:04:47;;;;;;;8.27;5.88;;;;;;;16.71;51.41;97179.31;5014499;28;20046;-80
2022/04/28 08:07:13;;;;;;;10.07;5.97;;;;;;;16.68;49.38;97177.00;5014682;28;20038;-80
2022/04/28 08:09:42;;;;;;;8.88;5.28;;;;;;;16.38;50.61;97183.94;4998955;28;20030;-80
2022/04/28 08:12:12;;;;;;;7.20;5.00;;;;;;;16.31;52.20;97184.81;5014945;28;20018;-81
2022/04/28 08:14:39;;;;;;;7.80;5.05;;;;;;;15.94;48.39;97191.56;5014225;28;20041;-81
2022/04/28 08:17:06;;;;;;;8.98;4.90;;;;;;;17.00;46.22;97179.66;5007751;28;20117;-80
2022/04/28 08:19:33;;;;;;;6.68;4.75;;;;;;;17.74;44.00;97187.88;4995182;28;20026;-81
2022/04/28 08:22:06;;;;;;;8.02;5.30;;;;;;;17.93;43.11;97187.38;4991860;28;20026;-80
2022/04/28 08:24:35;;;;;;;6.47;4.47;;;;;;;18.80;43.99;97179.53;4997546;28;20038;-80
2022/04/28 08:27:01;;;;;;;7.32;4.20;;;;;;;18.88;42.61;97178.63;4994669;28;20035;-80
2022/04/28 08:29:27;;;;;;;7.90;4.70;;;;;;;18.34;42.69;97184.25;5011974;28;20376;-81
2022/04/28 08:31:59;;;;;;;8.30;5.28;;;;;;;18.80;42.81;97184.06;5008523;28;20022;-81
2022/04/28 08:34:25;;;;;;;6.97;4.70;;;;;;;19.08;40.29;97193.00;5013187;28;20067;-81
2022/04/28 08:36:52;;;;;;;7.05;4.40;;;;;;;17.51;39.08;97199.41;5015172;28;20022;-81
2022/04/28 08:39:20;;;;;;;7.03;3.95;;;;;;;18.51;38.32;97198.22;4998875;28;20034;-81
2022/04/28 08:41:48;;;;;;;6.93;4.55;;;;;;;18.11;38.81;97200.34;5013766;28;20403;-81
2022/04/28 08:44:22;;;;;;;6.78;4.30;;;;;;;17.30;40.17;97196.56;5014330;28;20038;-80
2022/04/28 08:46:56;;;;;;;10.40;4.32;;;;;;;16.98;41.58;97206.44;4999084;28;20494;-81
2022/04/28 08:49:32;;;;;;;7.60;4.15;;;;;;;17.14;39.82;97206.31;5006614;28;20034;-80
2022/04/28 08:52:18;;;;;;;8.85;4.05;;;;;;;17.94;38.90;97199.69;5013520;28;20130;-80
2022/04/28 08:54:46;;;;;;;6.50;4.22;;;;;;;17.81;38.80;97194.19;5009843;28;20033;-82
2022/04/28 08:57:13;;;;;;;7.13;4.20;;;;;;;17.98;38.25;97211.63;4990248;28;20068;-81
2022/04/28 08:59:40;;;;;;;7.13;4.32;;;;;;;17.53;40.32;97200.03;5014575;28;20052;-81
2022/04/28 09:02:10;;;;;;;6.70;4.13;;;;;;;18.07;38.25;97210.50;4995413;28;20034;-81
2022/04/28 09:05:05;;;;;;;6.78;4.75;;;;;;;18.47;38.05;97205.75;5008181;28;20073;-80
2022/04/28 09:07:53;;;;;;;5.85;3.83;;;;;;;18.38;37.30;97197.03;5016331;28;20040;-80
2022/04/28 09:10:38;;;;;;;6.97;4.22;;;;;;;18.50;36.60;97213.38;5016122;28;20079;-80
2022/04/28 09:16:17;;;;;;;6.75;4.25;;;;;;;17.56;39.30;97205.00;5015101;28;20030;-81
2022/04/28 09:18:44;;;;;;;6.00;3.92;;;;;;;17.96;38.09;97218.13;5001494;28;20025;-81
2022/04/28 09:21:10;;;;;;;12.23;4.70;;;;;;;17.19;37.70;97222.56;5003513;28;20038;-79
2022/04/28 09:23:36;;;;;;;7.15;4.32;;;;;;;18.43;37.63;97214.31;5019694;28;20034;-80
2022/04/28 09:26:02;;;;;;;8.68;3.97;;;;;;;18.11;36.15;97219.81;4995610;28;20030;-80
2022/04/28 09:28:29;;;;;;;6.13;3.80;;;;;;;18.31;36.14;97216.63;5017375;28;20407;-80
2022/04/28 09:30:56;;;;;;;4.97;3.28;;;;;;;18.72;35.06;97208.97;5003132;28;20426;-81
2022/04/28 09:33:38;;;;;;;5.97;3.58;;;;;;;17.39;36.80;97214.13;5011998;28;20029;-80
2022/04/28 09:36:23;;;;;;;6.15;3.67;;;;;;;19.13;36.41;97196.91;5018084;28;20048;-80
2022/04/28 09:38:55;;;;;;;6.15;3.75;;;;;;;19.05;34.70;97203.19;5015075;28;20085;-80
2022/04/28 09:44:12;;;;;;;7.03;3.97;;;;;;;18.37;34.51;97210.53;5030980;28;20040;-81
2022/04/28 09:46:44;;;;;;;6.22;3.45;;;;;;;19.19;33.53;97199.66;5019380;28;20151;-81
2022/04/28 09:49:15;;;;;;;5.85;3.65;;;;;;;19.53;33.84;97196.28;5002917;28;20054;-81
2022/04/28 09:51:59;;;;;;;11.93;10.32;;;;;;;19.76;33.63;97201.41;5021465;28;20123;-80
2022/04/28 09:54:36;;;;;;;7.10;4.05;;;;;;;19.79;33.91;97205.56;5020624;28;20080;-81
2022/04/28 09:57:07;;;;;;;5.43;3.30;;;;;;;18.66;33.00;97208.88;5001375;28;20065;-81
2022/04/28 09:59:34;;;;;;;5.93;3.53;;;;;;;20.48;31.12;97200.22;5002179;28;20040;-81
2022/04/28 10:02:00;;;;;;;4.93;2.88;;;;;;;19.61;31.49;97205.97;5003982;28;20033;-81
2022/04/28 10:04:29;;;;;;;6.35;3.25;;;;;;;18.71;30.44;97209.97;5003696;28;20037;-82
2022/04/28 10:07:18;;;;;;;5.13;2.33;;;;;;;21.47;28.70;97198.94;5012358;28;20543;-81
2022/04/28 10:09:47;;;;;;;6.20;2.45;;;;;;;18.31;32.59;97211.28;5019954;28;20049;-81
2022/04/28 10:12:22;;;;;;;4.35;2.28;;;;;;;17.67;28.73;97219.69;5005256;28;20036;-80
2022/04/28 10:15:09;;;;;;;7.35;4.03;;;;;;;18.48;31.04;97210.09;5014378;28;20048;-81
2022/04/28 10:17:53;;;;;;;5.40;2.90;;;;;;;19.69;29.75;97210.41;5020755;28;20100;-82
2022/04/28 10:20:29;;;;;;;5.45;3.78;;;;;;;19.21;31.09;97207.44;5005036;28;20026;-81
2022/04/28 10:23:04;;;;;;;4.20;2.63;;;;;;;19.58;29.47;97203.69;5013182;28;20033;-81
2022/04/28 10:34:58;;;;;;;7.50;4.03;;;;;;;20.90;32.88;97198.38;5018496;28;20038;-80
2022/04/28 10:37:31;;;;;;;6.07;3.35;;;;;;;22.05;29.71;97188.41;5002155;28;20044;-81
2022/04/28 10:39:57;;;;;;;6.10;3.50;;;;;;;22.20;31.06;97190.91;5016907;28;20483;-81
2022/04/28 10:42:25;;;;;;;6.68;3.92;;;;;;;21.92;31.30;97191.09;5000925;28;20129;-81
2022/04/28 10:44:57;;;;;;;9.20;4.55;;;;;;;21.14;32.50;97193.50;5001283;28;20041;-81
2022/04/28 10:47:42;;;;;;;6.32;4.20;;;;;;;21.73;32.42;97192.78;4997506;28;20038;-81
2022/04/28 10:50:25;;;;;;;7.38;4.22;;;;;;;20.85;31.57;97194.66;5000431;28;20038;-81
2022/04/28 10:53:10;;;;;;;6.07;4.00;;;;;;;21.44;32.21;97193.19;4999965;28;20111;-81
2022/04/28 10:55:44;;;;;;;6.75;4.22;;;;;;;20.88;31.99;97195.06;4996817;28;20391;-81
2022/04/28 10:58:26;;;;;;;6.15;4.28;;;;;;;20.61;31.87;97187.97;4998773;28;20034;-81
2022/04/28 11:00:54;;;;;;;5.40;3.72;;;;;;;20.86;33.96;97197.13;5015488;28;20943;-81
2022/04/28 11:03:42;;;;;;;7.63;3.85;;;;;;;21.54;31.84;97198.94;5000242;28;20096;-81
2022/04/28 11:06:12;;;;;;;7.47;4.05;;;;;;;20.65;31.67;97198.06;5015400;28;20086;-80
2022/04/28 11:08:44;;;;;;;6.45;3.78;;;;;;;19.80;32.49;97207.19;5001159;28;20053;-82
2022/04/28 11:11:14;;;;;;;10.10;4.03;;;;;;;20.64;31.92;97199.09;5019540;28;20080;-81
2022/04/28 11:13:43;;;;;;;7.40;4.10;;;;;;;21.99;31.19;97196.47;5000886;28;20045;-81
2022/04/28 11:16:10;;;;;;;9.95;4.90;;;;;;;21.03;30.92;97188.75;5018792;28;20030;-81
2022/04/28 11:18:37;;;;;;;6.20;4.13;;;;;;;22.69;30.90;97188.69;5017843;28;20048;-81
2022/04/28 11:21:03;;;;;;;7.18;4.68;;;;;;;20.69;32.11;97202.00;5019410;28;20527;-81
2022/04/28 11:23:34;;;;;;;10.70;5.25;;;;;;;21.40;34.42;97198.94;5001485;28;20057;-81
2022/04/28 11:26:01;;;;;;;8.07;4.90;;;;;;;20.11;34.09;97203.31;5009139;28;20030;-81
2022/04/28 11:28:27;;;;;;;7.97;4.82;;;;;;;20.99;34.29;97195.50;5000078;28;20133;-81
2022/04/28 11:30:53;;;;;;;7.75;4.57;;;;;;;21.64;32.40;97186.81;4999490;28;20065;-81
2022/04/28 11:33:21;;;;;;;7.40;4.32;;;;;;;22.33;31.15;97190.88;4998447;28;20041;-81
2022/04/28 11:35:46;;;;;;;8.07;4.03;;;;;;;21.36;32.98;97192.34;5010171;28;20029;-81
2022/04/28 11:38:12;;;;;;;7.35;4.75;;;;;;;20.00;34.66;97205.50;5015097;28;20478;-81
2022/04/28 11:40:39;;;;;;;6.63;4.30;;;;;;;21.59;31.95;97191.94;5015729;28;20044;-80
2022/04/28 11:43:06;;;;;;;7.43;3.90;;;;;;;20.68;33.99;97199.53;5014479;28;20060;-80
2022/04/28 11:45:32;;;;;;;7.53;3.83;;;;;;;21.54;32.31;97182.88;5006251;28;20029;-81
2022/04/28 11:48:00;;;;;;;6.72;3.88;;;;;;;21.96;31.78;97194.19;4994726;28;20054;-81
2022/04/28 11:50:32;;;;;;;10.15;5.18;;;;;;;21.40;30.87;97182.06;5015014;28;20466;-80
2022/04/28 11:53:11;;;;;;;6.55;3.38;;;;;;;22.88;31.90;97173.56;5015824;28;20040;-80
2022/04/28 11:55:40;;;;;;;5.95;4.10;;;;;;;21.95;32.13;97195.22;5014216;28;20030;-81
2022/04/28 11:58:08;;;;;;;6.57;3.72;;;;;;;22.51;29.73;97190.19;4982317;28;20119;-80
2022/04/28 12:00:38;;;;;;;6.18;3.95;;;;;;;22.48;29.78;97187.94;5014335;28;20064;-80
2022/04/28 12:03:03;;;;;;;5.85;3.92;;;;;;;21.00;32.40;97202.53;4996892;28;20129;-81
2022/04/28 12:05:34;;;;;;;6.10;4.10;;;;;;;21.31;30.08;97194.78;5013425;28;20060;-81
2022/04/28 12:08:01;;;;;;;5.80;3.33;;;;;;;20.79;32.01;97204.31;5014640;28;20030;-81
2022/04/28 12:16:07;;;;;;;5.43;3.63;;;;;;;21.50;29.26;97187.00;5009968;28;20038;-80
2022/04/28 12:21:24;;;;;;;6.38;3.95;;;;;;;21.99;30.83;97183.06;5009520;28;20046;-81
2022/04/28 12:23:58;;;;;;;9.90;7.55;;;;;;;22.28;30.23;97185.31;5002543;28;20038;-81
2022/04/28 12:26:24;;;;;;;7.60;4.45;;;;;;;19.73;32.60;97193.81;5010895;28;20037;-80